sensor_id;sensor_type;location;lat;lon;timestamp;pressure;altitude;pressure_sealevel;temperature;humidity
70909;BME280;58554;52.006;5.926;2023-02-24T00:01:19;100761.03;;;-0.17;90.32
70909;BME280;58554;52.006;5.926;2023-02-24T00:03:49;100756.72;;;-0.18;90.34
70909;BME280;58554;52.006;5.926;2023-02-24T00:06:17;100759.34;;;-0.20;90.16
70909;BME280;58554;52.006;5.926;2023-02-24T00:08:43;100750.72;;;-0.24;90.24
70909;BME280;58554;52.006;5.926;2023-02-24T00:11:12;100756.81;;;-0.26;90.40
70909;BME280;58554;52.006;5.926;2023-02-24T00:13:40;100748.19;;;-0.31;90.21
70909;BME280;58554;52.006;5.926;2023-02-24T00:16:07;100752.59;;;-0.35;90.13
70909;BME280;58554;52.006;5.926;2023-02-24T00:18:34;100752.63;;;-0.38;90.11
70909;BME280;58554;52.006;5.926;2023-02-24T00:21:11;100749.22;;;-0.42;90.34
70909;BME280;58554;52.006;5.926;2023-02-24T00:23:40;100754.44;;;-0.45;90.37
70909;BME280;58554;52.006;5.926;2023-02-24T00:26:11;100741.50;;;-0.48;90.20
70909;BME280;58554;52.006;5.926;2023-02-24T00:28:39;100740.66;;;-0.50;90.29
70909;BME280;58554;52.006;5.926;2023-02-24T00:31:09;100737.22;;;-0.52;90.27
70909;BME280;58554;52.006;5.926;2023-02-24T00:33:37;100735.53;;;-0.56;90.41
70909;BME280;58554;52.006;5.926;2023-02-24T00:36:06;100735.53;;;-0.56;90.42
70909;BME280;58554;52.006;5.926;2023-02-24T00:38:38;100731.25;;;-0.60;90.38
70909;BME280;58554;52.006;5.926;2023-02-24T00:41:11;100733.88;;;-0.63;90.54
70909;BME280;58554;52.006;5.926;2023-02-24T00:43:40;100727.84;;;-0.67;90.50
70909;BME280;58554;52.006;5.926;2023-02-24T00:46:07;100724.44;;;-0.69;90.52
70909;BME280;58554;52.006;5.926;2023-02-24T00:48:34;100727.06;;;-0.70;90.54
70909;BME280;58554;52.006;5.926;2023-02-24T00:51:00;100726.22;;;-0.72;90.53
70909;BME280;58554;52.006;5.926;2023-02-24T00:53:29;100719.34;;;-0.76;90.42
70909;BME280;58554;52.006;5.926;2023-02-24T00:55:58;100714.16;;;-0.78;90.63
70909;BME280;58554;52.006;5.926;2023-02-24T00:58:25;100707.25;;;-0.79;90.71
70909;BME280;58554;52.006;5.926;2023-02-24T01:00:52;100702.91;;;-0.78;90.62
70909;BME280;58554;52.006;5.926;2023-02-24T01:03:18;100704.63;;;-0.77;90.72
70909;BME280;58554;52.006;5.926;2023-02-24T01:05:45;100690.84;;;-0.81;90.85
70909;BME280;58554;52.006;5.926;2023-02-24T01:08:11;100689.09;;;-0.82;90.86
70909;BME280;58554;52.006;5.926;2023-02-24T01:10:40;100698.63;;;-0.83;90.85
70909;BME280;58554;52.006;5.926;2023-02-24T01:13:07;100690.00;;;-0.83;90.95
70909;BME280;58554;52.006;5.926;2023-02-24T01:15:33;100690.84;;;-0.84;90.95
70909;BME280;58554;52.006;5.926;2023-02-24T01:18:00;100683.97;;;-0.87;91.07
70909;BME280;58554;52.006;5.926;2023-02-24T01:20:26;100685.72;;;-0.87;90.93
70909;BME280;58554;52.006;5.926;2023-02-24T01:22:53;100683.13;;;-0.89;90.91
70909;BME280;58554;52.006;5.926;2023-02-24T01:25:19;100684.88;;;-0.91;90.73
70909;BME280;58554;52.006;5.926;2023-02-24T01:27:49;100680.53;;;-0.90;91.07
70909;BME280;58554;52.006;5.926;2023-02-24T01:30:15;100667.56;;;-0.92;90.98
70909;BME280;58554;52.006;5.926;2023-02-24T01:32:42;100666.72;;;-0.92;90.82
70909;BME280;58554;52.006;5.926;2023-02-24T01:35:10;100661.53;;;-0.94;90.98
70909;BME280;58554;52.006;5.926;2023-02-24T01:37:37;100656.34;;;-0.92;90.98
70909;BME280;58554;52.006;5.926;2023-02-24T01:40:05;100662.38;;;-0.92;90.95
70909;BME280;58554;52.006;5.926;2023-02-24T01:42:33;100647.66;;;-0.90;91.04
70909;BME280;58554;52.006;5.926;2023-02-24T01:45:12;100639.84;;;-0.88;90.85
70909;BME280;58554;52.006;5.926;2023-02-24T01:47:41;100637.25;;;-0.87;91.01
70909;BME280;58554;52.006;5.926;2023-02-24T01:50:10;100629.47;;;-0.87;90.89
70909;BME280;58554;52.006;5.926;2023-02-24T01:52:37;100632.91;;;-0.85;90.89
70909;BME280;58554;52.006;5.926;2023-02-24T01:55:07;100616.44;;;-0.84;90.86
70909;BME280;58554;52.006;5.926;2023-02-24T01:57:39;100612.97;;;-0.81;90.74
70909;BME280;58554;52.006;5.926;2023-02-24T02:00:11;100612.91;;;-0.80;90.29
70909;BME280;58554;52.006;5.926;2023-02-24T02:02:42;100603.44;;;-0.82;90.30
70909;BME280;58554;52.006;5.926;2023-02-24T02:05:12;100598.31;;;-0.85;90.40
70909;BME280;58554;52.006;5.926;2023-02-24T02:07:39;100593.97;;;-0.88;90.46
70909;BME280;58554;52.006;5.926;2023-02-24T02:10:10;100587.94;;;-0.90;90.44
70909;BME280;58554;52.006;5.926;2023-02-24T02:12:40;100586.25;;;-0.91;90.46
70909;BME280;58554;52.006;5.926;2023-02-24T02:15:14;100584.56;;;-0.95;90.39
70909;BME280;58554;52.006;5.926;2023-02-24T02:17:46;100582.91;;;-0.99;90.25
70909;BME280;58554;52.006;5.926;2023-02-24T02:20:46;100580.34;;;-1.02;90.57
70909;BME280;58554;52.006;5.926;2023-02-24T02:24:13;100576.03;;;-1.03;90.62
70909;BME280;58554;52.006;5.926;2023-02-24T02:27:21;100572.59;;;-1.05;90.63
70909;BME280;58554;52.006;5.926;2023-02-24T02:30:07;100571.75;;;-1.06;90.65
70909;BME280;58554;52.006;5.926;2023-02-24T02:33:17;100563.13;;;-1.09;90.48
70909;BME280;58554;52.006;5.926;2023-02-24T02:36:12;100568.31;;;-1.11;90.78
70909;BME280;58554;52.006;5.926;2023-02-24T02:38:52;100560.59;;;-1.15;90.40
70909;BME280;58554;52.006;5.926;2023-02-24T02:41:28;100553.72;;;-1.18;90.85
70909;BME280;58554;52.006;5.926;2023-02-24T02:44:06;100557.22;;;-1.21;90.46
70909;BME280;58554;52.006;5.926;2023-02-24T02:46:43;100544.25;;;-1.22;90.38
70909;BME280;58554;52.006;5.926;2023-02-24T02:49:16;100537.34;;;-1.22;90.63
70909;BME280;58554;52.006;5.926;2023-02-24T02:51:54;100535.63;;;-1.23;90.65
70909;BME280;58554;52.006;5.926;2023-02-24T02:54:28;100531.31;;;-1.24;90.54
70909;BME280;58554;52.006;5.926;2023-02-24T02:57:08;100531.31;;;-1.25;90.65
70909;BME280;58554;52.006;5.926;2023-02-24T02:59:43;100526.13;;;-1.25;90.36
70909;BME280;58554;52.006;5.926;2023-02-24T03:02:15;100525.25;;;-1.23;90.58
70909;BME280;58554;52.006;5.926;2023-02-24T03:04:48;100511.41;;;-1.22;90.45
70909;BME280;58554;52.006;5.926;2023-02-24T03:07:23;100510.53;;;-1.21;90.49
70909;BME280;58554;52.006;5.926;2023-02-24T03:09:54;100508.78;;;-1.20;90.29
70909;BME280;58554;52.006;5.926;2023-02-24T03:12:27;100501.84;;;-1.18;90.25
70909;BME280;58554;52.006;5.926;2023-02-24T03:14:58;100506.19;;;-1.18;90.17
70909;BME280;58554;52.006;5.926;2023-02-24T03:17:31;100497.56;;;-1.21;89.96
70909;BME280;58554;52.006;5.926;2023-02-24T03:20:08;100502.75;;;-1.21;90.11
70909;BME280;58554;52.006;5.926;2023-02-24T03:22:45;100501.00;;;-1.22;90.09
70909;BME280;58554;52.006;5.926;2023-02-24T03:25:15;100488.09;;;-1.25;90.09
70909;BME280;58554;52.006;5.926;2023-02-24T03:27:45;100483.78;;;-1.27;90.04
70909;BME280;58554;52.006;5.926;2023-02-24T03:30:19;100490.72;;;-1.28;90.01
70909;BME280;58554;52.006;5.926;2023-02-24T03:32:53;100481.25;;;-1.29;89.91
70909;BME280;58554;52.006;5.926;2023-02-24T03:35:25;100483.00;;;-1.31;90.09
70909;BME280;58554;52.006;5.926;2023-02-24T03:37:57;100479.50;;;-1.30;90.19
70909;BME280;58554;52.006;5.926;2023-02-24T03:40:25;100477.81;;;-1.31;90.29
70909;BME280;58554;52.006;5.926;2023-02-24T03:42:57;100471.72;;;-1.30;90.36
70909;BME280;58554;52.006;5.926;2023-02-24T03:45:28;100472.56;;;-1.28;89.98
70909;BME280;58554;52.006;5.926;2023-02-24T03:47:55;100476.00;;;-1.26;90.17
70909;BME280;58554;52.006;5.926;2023-02-24T03:50:22;100468.22;;;-1.27;90.12
70909;BME280;58554;52.006;5.926;2023-02-24T03:52:57;100461.31;;;-1.27;89.97
70909;BME280;58554;52.006;5.926;2023-02-24T03:55:36;100467.28;;;-1.22;90.14
70909;BME280;58554;52.006;5.926;2023-02-24T03:58:16;100458.50;;;-1.11;90.23
70909;BME280;58554;52.006;5.926;2023-02-24T04:00:54;100454.91;;;-1.01;90.00
70909;BME280;58554;52.006;5.926;2023-02-24T04:03:30;100458.22;;;-0.91;89.81
70909;BME280;58554;52.006;5.926;2023-02-24T04:06:08;100458.97;;;-0.85;89.70
70909;BME280;58554;52.006;5.926;2023-02-24T04:08:49;100457.19;;;-0.81;89.63
70909;BME280;58554;52.006;5.926;2023-02-24T04:11:25;100460.59;;;-0.77;89.65
70909;BME280;58554;52.006;5.926;2023-02-24T04:14:00;100455.34;;;-0.73;89.68
70909;BME280;58554;52.006;5.926;2023-02-24T04:16:36;100450.94;;;-0.68;89.34
70909;BME280;58554;52.006;5.926;2023-02-24T04:19:10;100450.00;;;-0.64;89.26
70909;BME280;58554;52.006;5.926;2023-02-24T04:21:42;100448.16;;;-0.58;89.24
70909;BME280;58554;52.006;5.926;2023-02-24T04:24:16;100440.28;;;-0.52;89.56
70909;BME280;58554;52.006;5.926;2023-02-24T04:26:47;100441.88;;;-0.44;89.30
70909;BME280;58554;52.006;5.926;2023-02-24T04:29:20;100433.09;;;-0.36;89.38
70909;BME280;58554;52.006;5.926;2023-02-24T04:31:52;100427.78;;;-0.30;89.11
70909;BME280;58554;52.006;5.926;2023-02-24T04:34:23;100424.16;;;-0.23;88.91
70909;BME280;58554;52.006;5.926;2023-02-24T04:36:50;100410.25;;;-0.19;88.75
70909;BME280;58554;52.006;5.926;2023-02-24T04:39:20;100410.22;;;-0.17;88.59
70909;BME280;58554;52.006;5.926;2023-02-24T04:41:47;100414.47;;;-0.13;88.48
70909;BME280;58554;52.006;5.926;2023-02-24T04:44:14;100413.53;;;-0.11;88.70
70909;BME280;58554;52.006;5.926;2023-02-24T04:46:41;100399.59;;;-0.07;88.60
70909;BME280;58554;52.006;5.926;2023-02-24T04:49:07;100394.38;;;-0.04;88.59
70909;BME280;58554;52.006;5.926;2023-02-24T04:51:34;100395.19;;;-0.02;88.37
70909;BME280;58554;52.006;5.926;2023-02-24T04:54:01;100390.78;;;0.02;88.38
70909;BME280;58554;52.006;5.926;2023-02-24T04:56:31;100383.78;;;0.04;88.58
70909;BME280;58554;52.006;5.926;2023-02-24T04:58:57;100382.06;;;0.05;88.42
70909;BME280;58554;52.006;5.926;2023-02-24T05:01:24;100378.56;;;0.07;88.66
70909;BME280;58554;52.006;5.926;2023-02-24T05:03:50;100375.06;;;0.08;88.29
70909;BME280;58554;52.006;5.926;2023-02-24T05:06:17;100368.94;;;0.11;88.24
70909;BME280;58554;52.006;5.926;2023-02-24T05:08:43;100375.84;;;0.12;88.09
70909;BME280;58554;52.006;5.926;2023-02-24T05:11:12;100368.88;;;0.14;88.35
70909;BME280;58554;52.006;5.926;2023-02-24T05:13:42;100357.56;;;0.16;88.15
70909;BME280;58554;52.006;5.926;2023-02-24T05:16:11;100361.84;;;0.19;88.06
70909;BME280;58554;52.006;5.926;2023-02-24T05:18:39;100356.66;;;0.19;88.09
70909;BME280;58554;52.006;5.926;2023-02-24T05:21:08;100347.00;;;0.24;88.02
70909;BME280;58554;52.006;5.926;2023-02-24T05:23:37;100341.75;;;0.27;88.07
70909;BME280;58554;52.006;5.926;2023-02-24T05:26:07;100333.88;;;0.29;87.51
70909;BME280;58554;52.006;5.926;2023-02-24T05:28:34;100326.91;;;0.31;87.76
70909;BME280;58554;52.006;5.926;2023-02-24T05:31:09;100324.28;;;0.32;87.84
70909;BME280;58554;52.006;5.926;2023-02-24T05:33:38;100318.19;;;0.33;87.81
70909;BME280;58554;52.006;5.926;2023-02-24T05:36:06;100312.13;;;0.33;87.75
70909;BME280;58554;52.006;5.926;2023-02-24T05:38:34;100310.38;;;0.33;87.89
70909;BME280;58554;52.006;5.926;2023-02-24T05:41:04;100305.25;;;0.30;88.35
70909;BME280;58554;52.006;5.926;2023-02-24T05:43:32;100303.59;;;0.28;88.32
70909;BME280;58554;52.006;5.926;2023-02-24T05:45:59;100296.75;;;0.24;88.37
70909;BME280;58554;52.006;5.926;2023-02-24T05:48:28;100297.69;;;0.21;88.53
70909;BME280;58554;52.006;5.926;2023-02-24T05:50:55;100293.44;;;0.17;88.42
70909;BME280;58554;52.006;5.926;2023-02-24T05:53:22;100286.50;;;0.16;88.46
70909;BME280;58554;52.006;5.926;2023-02-24T05:55:48;100281.34;;;0.14;88.68
70909;BME280;58554;52.006;5.926;2023-02-24T05:58:15;100277.03;;;0.13;88.74
70909;BME280;58554;52.006;5.926;2023-02-24T06:00:41;100279.63;;;0.13;88.59
70909;BME280;58554;52.006;5.926;2023-02-24T06:03:08;100267.50;;;0.14;88.46
70909;BME280;58554;52.006;5.926;2023-02-24T06:05:37;100266.63;;;0.15;88.79
70909;BME280;58554;52.006;5.926;2023-02-24T06:08:03;100270.91;;;0.16;88.88
70909;BME280;58554;52.006;5.926;2023-02-24T06:10:34;100251.88;;;0.15;88.99
70909;BME280;58554;52.006;5.926;2023-02-24T06:13:01;100247.53;;;0.14;88.78
70909;BME280;58554;52.006;5.926;2023-02-24T06:15:29;100240.63;;;0.15;89.10
70909;BME280;58554;52.006;5.926;2023-02-24T06:17:55;100241.50;;;0.14;88.87
70909;BME280;58554;52.006;5.926;2023-02-24T06:20:23;100238.03;;;0.15;88.98
70909;BME280;58554;52.006;5.926;2023-02-24T06:22:52;100242.34;;;0.14;89.16
70909;BME280;58554;52.006;5.926;2023-02-24T06:25:20;100246.69;;;0.14;89.29
70909;BME280;58554;52.006;5.926;2023-02-24T06:27:48;100244.09;;;0.14;89.07
70909;BME280;58554;52.006;5.926;2023-02-24T06:30:15;100235.44;;;0.13;89.06
70909;BME280;58554;52.006;5.926;2023-02-24T06:32:42;100239.72;;;0.14;89.16
70909;BME280;58554;52.006;5.926;2023-02-24T06:35:09;100238.88;;;0.15;89.21
70909;BME280;58554;52.006;5.926;2023-02-24T06:37:36;100235.34;;;0.16;89.36
70909;BME280;58554;52.006;5.926;2023-02-24T06:40:06;100236.22;;;0.17;89.24
70909;BME280;58554;52.006;5.926;2023-02-24T06:42:34;100221.47;;;0.17;89.34
70909;BME280;58554;52.006;5.926;2023-02-24T06:45:00;100219.69;;;0.19;89.27
70909;BME280;58554;52.006;5.926;2023-02-24T06:47:26;100223.09;;;0.23;89.42
70909;BME280;58554;52.006;5.926;2023-02-24T06:49:53;100217.00;;;0.24;89.45
70909;BME280;58554;52.006;5.926;2023-02-24T06:52:20;100210.00;;;0.26;89.48
70909;BME280;58554;52.006;5.926;2023-02-24T06:54:47;100203.03;;;0.28;89.46
70909;BME280;58554;52.006;5.926;2023-02-24T06:57:16;100205.56;;;0.31;89.27
70909;BME280;58554;52.006;5.926;2023-02-24T06:59:43;100200.28;;;0.34;89.35
70909;BME280;58554;52.006;5.926;2023-02-24T07:02:10;100199.34;;;0.37;89.37
70909;BME280;58554;52.006;5.926;2023-02-24T07:04:36;100208.81;;;0.39;89.28
70909;BME280;58554;52.006;5.926;2023-02-24T07:07:03;100200.97;;;0.41;89.33
70909;BME280;58554;52.006;5.926;2023-02-24T07:09:30;100198.31;;;0.44;89.57
70909;BME280;58554;52.006;5.926;2023-02-24T07:11:56;100198.25;;;0.46;89.09
70909;BME280;58554;52.006;5.926;2023-02-24T07:14:27;100184.34;;;0.48;89.23
70909;BME280;58554;52.006;5.926;2023-02-24T07:16:55;100181.66;;;0.51;89.21
70909;BME280;58554;52.006;5.926;2023-02-24T07:19:23;100183.28;;;0.55;89.37
70909;BME280;58554;52.006;5.926;2023-02-24T07:21:54;100174.53;;;0.58;89.51
70909;BME280;58554;52.006;5.926;2023-02-24T07:24:22;100170.97;;;0.62;89.31
70909;BME280;58554;52.006;5.926;2023-02-24T07:26:52;100162.22;;;0.65;89.40
70909;BME280;58554;52.006;5.926;2023-02-24T07:29:21;100162.19;;;0.66;89.10
70909;BME280;58554;52.006;5.926;2023-02-24T07:31:51;100161.22;;;0.70;89.18
70909;BME280;58554;52.006;5.926;2023-02-24T07:34:17;100161.16;;;0.73;89.02
70909;BME280;58554;52.006;5.926;2023-02-24T07:36:45;100158.47;;;0.75;88.94
70909;BME280;58554;52.006;5.926;2023-02-24T07:39:12;100159.22;;;0.80;89.22
70909;BME280;58554;52.006;5.926;2023-02-24T07:41:38;100160.88;;;0.82;88.96
70909;BME280;58554;52.006;5.926;2023-02-24T07:44:05;100159.06;;;0.86;88.83
70909;BME280;58554;52.006;5.926;2023-02-24T07:46:31;100153.81;;;0.88;89.05
70909;BME280;58554;52.006;5.926;2023-02-24T07:49:00;100150.19;;;0.93;89.07
70909;BME280;58554;52.006;5.926;2023-02-24T07:51:27;100147.44;;;0.98;89.11
70909;BME280;58554;52.006;5.926;2023-02-24T07:53:56;100155.19;;;1.01;88.97
70909;BME280;58554;52.006;5.926;2023-02-24T07:56:25;100142.88;;;1.06;89.17
70909;BME280;58554;52.006;5.926;2023-02-24T07:58:57;100135.00;;;1.09;89.10
70909;BME280;58554;52.006;5.926;2023-02-24T08:01:26;100138.31;;;1.14;89.24
70909;BME280;58554;52.006;5.926;2023-02-24T08:03:56;100133.03;;;1.17;89.03
70909;BME280;58554;52.006;5.926;2023-02-24T08:06:30;100133.78;;;1.21;89.21
70909;BME280;58554;52.006;5.926;2023-02-24T08:08:58;100128.47;;;1.24;88.91
70909;BME280;58554;52.006;5.926;2023-02-24T08:11:26;100122.28;;;1.28;89.24
70909;BME280;58554;52.006;5.926;2023-02-24T08:13:54;100117.88;;;1.30;89.27
70909;BME280;58554;52.006;5.926;2023-02-24T08:16:20;100117.78;;;1.33;89.18
70909;BME280;58554;52.006;5.926;2023-02-24T08:18:47;100113.31;;;1.38;89.32
70909;BME280;58554;52.006;5.926;2023-02-24T08:21:14;100113.19;;;1.41;89.18
70909;BME280;58554;52.006;5.926;2023-02-24T08:23:45;100104.34;;;1.47;89.25
70909;BME280;58554;52.006;5.926;2023-02-24T08:26:12;100107.69;;;1.52;89.19
70909;BME280;58554;52.006;5.926;2023-02-24T08:28:39;100101.53;;;1.55;89.29
70909;BME280;58554;52.006;5.926;2023-02-24T08:31:06;100104.78;;;1.61;89.49
70909;BME280;58554;52.006;5.926;2023-02-24T08:33:33;100102.88;;;1.67;89.54
70909;BME280;58554;52.006;5.926;2023-02-24T08:35:59;100097.53;;;1.71;89.48
70909;BME280;58554;52.006;5.926;2023-02-24T08:38:27;100087.84;;;1.75;89.56
70909;BME280;58554;52.006;5.926;2023-02-24T08:40:57;100091.25;;;1.77;89.74
70909;BME280;58554;52.006;5.926;2023-02-24T08:43:25;100078.19;;;1.78;89.66
70909;BME280;58554;52.006;5.926;2023-02-24T08:45:56;100083.31;;;1.81;89.97
70909;BME280;58554;52.006;5.926;2023-02-24T08:48:26;100072.81;;;1.83;89.83
70909;BME280;58554;52.006;5.926;2023-02-24T08:50:55;100069.28;;;1.86;89.80
70909;BME280;58554;52.006;5.926;2023-02-24T08:53:23;100064.78;;;1.89;89.92
70909;BME280;58554;52.006;5.926;2023-02-24T08:55:50;100069.94;;;1.92;89.97
70909;BME280;58554;52.006;5.926;2023-02-24T08:58:20;100062.06;;;1.94;90.24
70909;BME280;58554;52.006;5.926;2023-02-24T09:00:47;100044.66;;;1.94;90.23
70909;BME280;58554;52.006;5.926;2023-02-24T09:03:14;100052.34;;;1.97;90.06
70909;BME280;58554;52.006;5.926;2023-02-24T09:05:41;100055.78;;;1.99;90.35
70909;BME280;58554;52.006;5.926;2023-02-24T09:08:08;100045.34;;;1.99;90.32
70909;BME280;58554;52.006;5.926;2023-02-24T09:10:34;100044.34;;;2.03;90.32
70909;BME280;58554;52.006;5.926;2023-02-24T09:13:01;100035.66;;;2.03;90.13
70909;BME280;58554;52.006;5.926;2023-02-24T09:15:30;100029.50;;;2.06;90.22
70909;BME280;58554;52.006;5.926;2023-02-24T09:17:56;100023.38;;;2.07;90.24
70909;BME280;58554;52.006;5.926;2023-02-24T09:20:23;100023.31;;;2.08;90.27
70909;BME280;58554;52.006;5.926;2023-02-24T09:22:50;100013.69;;;2.10;90.72
70909;BME280;58554;52.006;5.926;2023-02-24T09:25:17;100001.44;;;2.12;90.59
70909;BME280;58554;52.006;5.926;2023-02-24T09:27:45;100010.94;;;2.15;90.63
70909;BME280;58554;52.006;5.926;2023-02-24T09:30:13;99999.50;;;2.19;90.66
70909;BME280;58554;52.006;5.926;2023-02-24T09:32:42;99990.78;;;2.18;90.42
70909;BME280;58554;52.006;5.926;2023-02-24T09:35:09;99997.72;;;2.19;90.72
70909;BME280;58554;52.006;5.926;2023-02-24T09:37:35;99990.66;;;2.23;90.97
70909;BME280;58554;52.006;5.926;2023-02-24T09:40:02;99976.66;;;2.26;90.99
70909;BME280;58554;52.006;5.926;2023-02-24T09:42:31;99967.81;;;2.30;91.13
70909;BME280;58554;52.006;5.926;2023-02-24T09:45:03;99968.53;;;2.33;91.01
70909;BME280;58554;52.006;5.926;2023-02-24T09:47:42;99963.03;;;2.41;90.94
70909;BME280;58554;52.006;5.926;2023-02-24T09:50:16;99967.84;;;2.52;91.07
70909;BME280;58554;52.006;5.926;2023-02-24T09:52:53;99954.53;;;2.59;90.78
70909;BME280;58554;52.006;5.926;2023-02-24T09:55:28;99962.13;;;2.65;90.74
70909;BME280;58554;52.006;5.926;2023-02-24T09:58:07;99950.66;;;2.70;90.65
70909;BME280;58554;52.006;5.926;2023-02-24T10:00:52;99958.38;;;2.73;90.64
70909;BME280;58554;52.006;5.926;2023-02-24T10:03:32;99952.06;;;2.78;90.59
70909;BME280;58554;52.006;5.926;2023-02-24T10:06:13;99946.63;;;2.84;90.51
70909;BME280;58554;52.006;5.926;2023-02-24T10:08:49;99941.22;;;2.89;90.64
70909;BME280;58554;52.006;5.926;2023-02-24T10:11:20;99942.88;;;2.92;90.38
70909;BME280;58554;52.006;5.926;2023-02-24T10:13:52;99936.66;;;2.94;90.40
70909;BME280;58554;52.006;5.926;2023-02-24T10:16:22;99936.59;;;2.96;90.74
70909;BME280;58554;52.006;5.926;2023-02-24T10:18:54;99928.75;;;2.96;90.41
70909;BME280;58554;52.006;5.926;2023-02-24T10:21:35;99919.19;;;2.96;90.34
70909;BME280;58554;52.006;5.926;2023-02-24T10:24:12;99920.75;;;3.00;90.71
70909;BME280;58554;52.006;5.926;2023-02-24T10:26:49;99915.34;;;3.05;90.88
70909;BME280;58554;52.006;5.926;2023-02-24T10:29:30;99916.00;;;3.10;91.01
70909;BME280;58554;52.006;5.926;2023-02-24T10:32:18;99913.22;;;3.15;90.79
70909;BME280;58554;52.006;5.926;2023-02-24T10:34:49;99909.56;;;3.19;91.10
70909;BME280;58554;52.006;5.926;2023-02-24T10:37:17;99911.22;;;3.21;90.91
70909;BME280;58554;52.006;5.926;2023-02-24T10:39:46;99910.22;;;3.24;90.88
70909;BME280;58554;52.006;5.926;2023-02-24T10:42:22;99910.19;;;3.25;91.00
70909;BME280;58554;52.006;5.926;2023-02-24T10:45:02;99914.41;;;3.28;91.09
70909;BME280;58554;52.006;5.926;2023-02-24T10:47:31;99901.22;;;3.31;91.24
70909;BME280;58554;52.006;5.926;2023-02-24T10:50:03;99905.53;;;3.32;91.09
70909;BME280;58554;52.006;5.926;2023-02-24T10:52:33;99900.31;;;3.32;91.28
70909;BME280;58554;52.006;5.926;2023-02-24T10:55:04;99903.72;;;3.34;91.35
70909;BME280;58554;52.006;5.926;2023-02-24T10:57:39;99883.66;;;3.35;91.21
70909;BME280;58554;52.006;5.926;2023-02-24T11:00:16;99887.91;;;3.37;91.16
70909;BME280;58554;52.006;5.926;2023-02-24T11:02:49;99884.38;;;3.38;91.49
70909;BME280;58554;52.006;5.926;2023-02-24T11:05:20;99880.72;;;3.42;91.42
70909;BME280;58554;52.006;5.926;2023-02-24T11:07:48;99889.22;;;3.47;91.59
70909;BME280;58554;52.006;5.926;2023-02-24T11:10:17;99883.09;;;3.49;91.59
70909;BME280;58554;52.006;5.926;2023-02-24T11:12:46;99883.03;;;3.50;91.38
70909;BME280;58554;52.006;5.926;2023-02-24T11:15:17;99872.47;;;3.52;91.51
70909;BME280;58554;52.006;5.926;2023-02-24T11:17:49;99862.81;;;3.54;91.71
70909;BME280;58554;52.006;5.926;2023-02-24T11:20:29;99851.41;;;3.56;91.64
70909;BME280;58554;52.006;5.926;2023-02-24T11:23:01;99848.69;;;3.58;91.76
70909;BME280;58554;52.006;5.926;2023-02-24T11:25:34;99839.88;;;3.60;91.79
70909;BME280;58554;52.006;5.926;2023-02-24T11:28:03;99824.13;;;3.62;91.92
70909;BME280;58554;52.006;5.926;2023-02-24T11:30:36;99830.84;;;3.68;91.97
70909;BME280;58554;52.006;5.926;2023-02-24T11:33:27;99822.75;;;3.74;91.91
70909;BME280;58554;52.006;5.926;2023-02-24T11:36:12;99819.19;;;3.75;92.23
70909;BME280;58554;52.006;5.926;2023-02-24T11:38:57;99814.84;;;3.75;92.37
70909;BME280;58554;52.006;5.926;2023-02-24T11:41:37;99811.22;;;3.78;92.43
70909;BME280;58554;52.006;5.926;2023-02-24T11:44:12;99810.19;;;3.82;92.33
70909;BME280;58554;52.006;5.926;2023-02-24T11:46:48;99798.78;;;3.83;92.18
70909;BME280;58554;52.006;5.926;2023-02-24T11:49:26;99801.50;;;3.81;92.22
70909;BME280;58554;52.006;5.926;2023-02-24T11:52:00;99802.34;;;3.82;92.25
70909;BME280;58554;52.006;5.926;2023-02-24T11:54:33;99794.50;;;3.82;92.45
70909;BME280;58554;52.006;5.926;2023-02-24T11:57:07;99793.56;;;3.83;92.23
70909;BME280;58554;52.006;5.926;2023-02-24T11:59:43;99779.59;;;3.84;92.24
70909;BME280;58554;52.006;5.926;2023-02-24T12:02:21;99788.28;;;3.84;92.56
70909;BME280;58554;52.006;5.926;2023-02-24T12:04:57;99782.81;;;3.89;92.34
70909;BME280;58554;52.006;5.926;2023-02-24T12:07:34;99767.91;;;3.91;92.64
70909;BME280;58554;52.006;5.926;2023-02-24T12:10:09;99763.56;;;3.92;93.22
70909;BME280;58554;52.006;5.926;2023-02-24T12:12:48;99764.22;;;3.95;93.01
70909;BME280;58554;52.006;5.926;2023-02-24T12:15:24;99764.09;;;3.98;92.82
70909;BME280;58554;52.006;5.926;2023-02-24T12:18:03;99756.09;;;4.01;92.96
70909;BME280;58554;52.006;5.926;2023-02-24T12:20:41;99746.34;;;4.05;92.98
70909;BME280;58554;52.006;5.926;2023-02-24T12:23:19;99749.59;;;4.10;93.06
70909;BME280;58554;52.006;5.926;2023-02-24T12:25:58;99748.53;;;4.14;93.37
70909;BME280;58554;52.006;5.926;2023-02-24T12:28:49;99744.78;;;4.20;93.48
70909;BME280;58554;52.006;5.926;2023-02-24T12:31:45;99747.28;;;4.23;93.75
70909;BME280;58554;52.006;5.926;2023-02-24T12:34:29;99744.50;;;4.26;93.83
70909;BME280;58554;52.006;5.926;2023-02-24T12:37:20;99743.56;;;4.27;93.71
70909;BME280;58554;52.006;5.926;2023-02-24T12:40:17;99747.81;;;4.30;93.30
70909;BME280;58554;52.006;5.926;2023-02-24T12:42:56;99744.81;;;4.37;93.39
70909;BME280;58554;52.006;5.926;2023-02-24T12:45:39;99746.38;;;4.41;93.21
70909;BME280;58554;52.006;5.926;2023-02-24T12:48:26;99735.75;;;4.44;93.46
70909;BME280;58554;52.006;5.926;2023-02-24T12:51:06;99736.66;;;4.43;93.76
70909;BME280;58554;52.006;5.926;2023-02-24T12:53:43;99734.03;;;4.43;93.77
70909;BME280;58554;52.006;5.926;2023-02-24T12:56:22;99743.44;;;4.47;93.64
70909;BME280;58554;52.006;5.926;2023-02-24T12:58:56;99747.25;;;4.59;93.63
70909;BME280;58554;52.006;5.926;2023-02-24T13:01:33;99731.47;;;4.78;93.97
70909;BME280;58554;52.006;5.926;2023-02-24T13:04:20;99720.09;;;4.97;94.26
70909;BME280;58554;52.006;5.926;2023-02-24T13:07:06;99714.72;;;5.33;94.13
70909;BME280;58554;52.006;5.926;2023-02-24T13:09:47;99703.44;;;5.48;93.57
70909;BME280;58554;52.006;5.926;2023-02-24T13:12:27;99700.56;;;5.53;93.45
70909;BME280;58554;52.006;5.926;2023-02-24T13:15:02;99685.06;;;5.64;93.73
70909;BME280;58554;52.006;5.926;2023-02-24T13:17:30;99687.66;;;5.82;93.72
70909;BME280;58554;52.006;5.926;2023-02-24T13:20:09;99677.06;;;5.99;93.45
70909;BME280;58554;52.006;5.926;2023-02-24T13:22:40;99664.41;;;6.22;93.70
70909;BME280;58554;52.006;5.926;2023-02-24T13:25:17;99662.59;;;6.38;93.09